Time;durP1;ratioP1;P1;durP2;ratioP2;P2;SDS_P1;SDS_P2;PMS_P1;PMS_P2;Temp;Humidity;BMP_temperature;BMP_pressure;BME280_temperature;BME280_humidity;BME280_pressure;Samples;Min_cycle;Max_cycle;Signal;HPM_P1;HPM_P2
2023/08/08 00:00:26;;;;;;;4.07;0.77;;;;;;;25.65;37.41;99651.59;4317088;33;34144;-66
2023/08/08 00:02:54;;;;;;;0.70;0.70;;;;;;;25.64;37.60;99652.63;4316609;33;34004;-69
2023/08/08 00:05:22;;;;;;;1.58;0.80;;;;;;;25.66;37.57;99658.69;4316922;33;34097;-66
2023/08/08 00:07:49;;;;;;;2.60;0.80;;;;;;;25.66;37.50;99659.53;4316635;33;33876;-68
2023/08/08 00:10:17;;;;;;;0.80;0.70;;;;;;;25.65;37.84;99657.87;4316796;33;34679;-65
2023/08/08 00:12:45;;;;;;;2.15;0.70;;;;;;;25.66;37.88;99659.53;4316851;33;34678;-68
2023/08/08 00:15:12;;;;;;;2.92;0.75;;;;;;;25.67;38.00;99665.81;4316783;33;33877;-65
2023/08/08 00:17:40;;;;;;;1.20;0.80;;;;;;;25.67;38.02;99668.56;4315336;33;33951;-70
2023/08/08 00:20:08;;;;;;;0.65;0.62;;;;;;;25.67;38.19;99672.13;4307490;33;33084;-65
2023/08/08 00:22:36;;;;;;;4.35;0.80;;;;;;;25.68;38.17;99670.22;4316661;33;33669;-68
2023/08/08 00:25:04;;;;;;;1.25;0.95;;;;;;;25.68;38.24;99667.47;4318406;33;33256;-65
2023/08/08 00:27:31;;;;;;;1.45;0.77;;;;;;;25.68;38.24;99671.03;4318123;33;33963;-65
2023/08/08 00:30:01;;;;;;;1.17;0.80;;;;;;;25.67;38.09;99669.38;4318454;33;33856;-66
2023/08/08 00:32:30;;;;;;;3.40;0.77;;;;;;;25.67;38.10;99666.66;4316932;33;34512;-66
2023/08/08 00:34:58;;;;;;;3.72;0.77;;;;;;;25.67;38.12;99669.38;4318560;33;33570;-66
2023/08/08 00:37:25;;;;;;;5.32;0.80;;;;;;;25.67;38.19;99672.13;4318363;33;34782;-65
2023/08/08 00:39:53;;;;;;;2.05;0.77;;;;;;;25.67;38.25;99663.09;4318201;33;33300;-68
2023/08/08 00:42:20;;;;;;;1.62;0.90;;;;;;;25.67;38.06;99660.34;4318366;33;33589;-66
2023/08/08 00:44:48;;;;;;;1.25;0.60;;;;;;;25.68;38.00;99659.28;4318365;33;33489;-65
2023/08/08 00:47:16;;;;;;;1.23;0.68;;;;;;;25.66;38.21;99665.00;4318100;33;33799;-69
2023/08/08 00:49:46;;;;;;;4.07;1.10;;;;;;;25.68;38.19;99662.84;4317317;33;33500;-65
2023/08/08 00:52:13;;;;;;;;;;;;;;;25.68;38.11;99671.03;4305699;33;33435;-66
2023/08/08 00:54:41;;;;;;;1.05;0.80;;;;;;;25.78;37.88;99667.69;4316986;33;33932;-69
2023/08/08 00:57:09;;;;;;;2.33;1.10;;;;;;;25.70;37.90;99665.34;4318843;33;34271;-70
2023/08/08 00:59:36;;;;;;;2.20;0.80;;;;;;;25.67;38.02;99663.91;4319790;33;33563;-66
2023/08/08 01:02:04;;;;;;;1.15;0.90;;;;;;;25.67;38.04;99660.34;4332903;33;33649;-65
2023/08/08 01:04:32;;;;;;;1.33;0.80;;;;;;;25.66;37.79;99665.00;4332942;33;33056;-66
2023/08/08 01:07:18;;;;;;;1.73;0.90;;;;;;;25.67;37.81;99663.09;4319625;33;34217;-69
2023/08/08 01:09:57;;;;;;;2.87;0.93;;;;;;;25.66;37.75;99661.44;4333214;33;33264;-68
2023/08/08 01:12:25;;;;;;;1.40;0.90;;;;;;;25.66;37.69;99665.00;4316774;33;34367;-68
2023/08/08 01:14:53;;;;;;;2.95;1.27;;;;;;;25.65;37.82;99665.25;4316960;33;33492;-68
2023/08/08 01:17:21;;;;;;;2.37;1.20;;;;;;;25.63;37.72;99662.75;4305207;33;33932;-69
2023/08/08 01:19:48;;;;;;;3.33;1.17;;;;;;;25.63;37.49;99660.00;4316945;33;34675;-67
2023/08/08 01:22:25;;;;;;;3.17;1.10;;;;;;;25.64;37.37;99660.84;4316421;33;34158;-70
2023/08/08 01:24:53;;;;;;;2.03;1.10;;;;;;;25.62;37.55;99658.34;4316888;33;33563;-67
2023/08/08 01:27:21;;;;;;;0.73;0.73;;;;;;;25.62;37.46;99663.81;4317782;33;33679;-68
2023/08/08 01:29:49;;;;;;;3.15;1.10;;;;;;;25.60;37.58;99660.53;4304878;33;34911;-66
2023/08/08 01:32:17;;;;;;;2.20;1.10;;;;;;;25.61;37.60;99662.16;4318108;33;33350;-68
2023/08/08 01:34:44;;;;;;;2.25;1.10;;;;;;;25.59;37.67;99649.81;4317340;33;33016;-66
2023/08/08 01:37:20;;;;;;;1.62;1.00;;;;;;;25.59;37.56;99653.38;4316742;33;34739;-67
2023/08/08 01:39:48;;;;;;;3.12;1.12;;;;;;;25.61;37.48;99644.94;4303798;33;33876;-67
2023/08/08 01:42:16;;;;;;;1.67;0.90;;;;;;;25.59;37.54;99658.00;4316573;33;33452;-65
2023/08/08 01:44:43;;;;;;;3.30;1.27;;;;;;;25.57;37.58;99655.53;4304834;33;34088;-66
2023/08/08 01:47:11;;;;;;;2.55;1.10;;;;;;;25.58;37.54;99659.09;4316138;33;34372;-66
2023/08/08 01:49:39;;;;;;;2.33;1.10;;;;;;;25.58;37.55;99656.34;4317919;33;33294;-65
2023/08/08 01:52:06;;;;;;;2.70;0.82;;;;;;;25.55;37.55;99657.66;4316684;33;33658;-69
2023/08/08 01:54:34;;;;;;;1.83;1.00;;;;;;;25.55;37.78;99663.13;4317782;33;33533;-65
2023/08/08 01:57:01;;;;;;;2.17;1.00;;;;;;;25.54;37.67;99657.91;4317948;33;34311;-69
2023/08/08 01:59:29;;;;;;;2.28;1.05;;;;;;;25.55;37.57;99659.56;4317932;33;34872;-66
2023/08/08 02:01:57;;;;;;;1.80;1.10;;;;;;;25.53;37.57;99662.56;4317739;33;33951;-69
2023/08/08 02:04:25;;;;;;;2.85;1.20;;;;;;;25.52;37.71;99666.37;4317866;33;34082;-65
2023/08/08 02:06:53;;;;;;;3.10;1.00;;;;;;;25.52;37.56;99665.53;4317855;33;33440;-70
2023/08/08 02:09:20;;;;;;;2.42;1.00;;;;;;;25.51;37.61;99667.44;4317535;33;33804;-65
2023/08/08 02:11:48;;;;;;;2.30;1.30;;;;;;;25.51;37.59;99672.03;4317784;33;34092;-68
2023/08/08 02:14:16;;;;;;;2.67;0.90;;;;;;;25.51;37.61;99672.03;4317767;33;33780;-65
2023/08/08 02:16:44;;;;;;;1.58;1.08;;;;;;;25.50;37.60;99667.66;4317626;33;34591;-66
2023/08/08 02:19:11;;;;;;;2.65;1.12;;;;;;;25.50;37.53;99670.41;4317676;33;35143;-65
2023/08/08 02:21:39;;;;;;;3.22;1.15;;;;;;;25.49;37.55;99669.56;4317904;33;33921;-68
2023/08/08 02:24:06;;;;;;;2.33;1.12;;;;;;;25.49;37.49;99669.56;4317626;33;34153;-66
2023/08/08 02:26:34;;;;;;;1.17;0.90;;;;;;;25.47;37.54;99677.19;4317705;33;34825;-66
2023/08/08 02:29:08;;;;;;;4.00;1.33;;;;;;;25.48;37.53;99678.84;4317572;33;34668;-65
2023/08/08 02:31:36;;;;;;;2.17;0.90;;;;;;;25.47;37.51;99679.09;4317618;33;34506;-67
2023/08/08 02:34:03;;;;;;;1.92;0.90;;;;;;;25.45;37.61;99688.34;4317675;33;33379;-65
2023/08/08 02:36:31;;;;;;;1.42;0.80;;;;;;;25.45;37.59;99693.81;4317490;33;33913;-65
2023/08/08 02:38:59;;;;;;;1.90;1.08;;;;;;;25.45;37.65;99688.34;4317675;33;33387;-67
2023/08/08 02:41:26;;;;;;;2.05;1.10;;;;;;;25.45;37.76;99692.97;4317424;33;33846;-68
2023/08/08 02:43:55;;;;;;;1.65;1.05;;;;;;;25.45;37.62;99696.53;4317605;33;33519;-65
2023/08/08 02:46:22;;;;;;;2.20;1.20;;;;;;;25.45;37.61;99695.72;4317343;33;33474;-66
2023/08/08 02:48:50;;;;;;;2.25;1.05;;;;;;;25.45;37.80;99701.16;4317767;33;33896;-68
2023/08/08 02:51:18;;;;;;;1.33;0.90;;;;;;;25.46;37.83;99700.12;4316129;33;33776;-68
2023/08/08 02:53:46;;;;;;;1.55;1.00;;;;;;;25.46;37.86;99694.66;4317693;33;33137;-69
2023/08/08 02:56:13;;;;;;;2.25;1.12;;;;;;;25.46;37.84;99700.12;4317784;33;34422;-67
2023/08/08 02:58:41;;;;;;;1.83;1.10;;;;;;;25.47;37.96;99707.25;4317646;33;34088;-68
2023/08/08 03:01:09;;;;;;;2.00;1.10;;;;;;;25.47;37.76;99701.78;4317529;33;35359;-65
2023/08/08 03:03:37;;;;;;;1.55;0.93;;;;;;;25.47;37.66;99701.78;4315321;33;34240;-65
2023/08/08 03:06:05;;;;;;;2.33;1.27;;;;;;;25.47;37.90;99707.25;4316254;33;33888;-64
2023/08/08 03:08:33;;;;;;;2.08;1.10;;;;;;;25.47;37.74;99704.50;4317350;33;33973;-64
2023/08/08 03:11:01;;;;;;;3.20;1.17;;;;;;;25.47;37.82;99701.78;4316084;33;33804;-65
2023/08/08 03:13:28;;;;;;;2.58;0.80;;;;;;;25.47;37.81;99701.78;4317363;33;32920;-66
2023/08/08 03:15:56;;;;;;;1.50;1.00;;;;;;;25.47;37.95;99709.97;4317612;33;33481;-65
2023/08/08 03:18:25;;;;;;;1.87;0.90;;;;;;;25.47;38.18;99723.62;4316141;33;34035;-65
2023/08/08 03:20:53;;;;;;;3.40;1.10;;;;;;;25.48;38.14;99721.72;4317415;33;34611;-65
2023/08/08 03:23:23;;;;;;;3.22;1.00;;;;;;;25.49;38.12;99729.66;4317627;33;34039;-65
2023/08/08 03:25:51;;;;;;;4.85;1.35;;;;;;;25.49;38.18;99740.59;4317384;33;33838;-64
2023/08/08 03:28:19;;;;;;;1.50;0.90;;;;;;;25.51;38.19;99740.34;4317418;33;34675;-64
2023/08/08 03:30:46;;;;;;;0.95;0.82;;;;;;;25.50;38.19;99747.72;4317454;33;33734;-65
2023/08/08 03:33:14;;;;;;;1.92;1.10;;;;;;;25.50;38.30;99741.41;4317232;33;33850;-64
2023/08/08 03:35:43;;;;;;;1.65;1.00;;;;;;;25.49;38.39;99743.34;4317180;33;33802;-65
2023/08/08 03:38:11;;;;;;;4.10;1.00;;;;;;;25.50;38.53;99746.88;4317441;33;34370;-64
2023/08/08 03:40:39;;;;;;;3.25;1.10;;;;;;;25.52;38.39;99750.22;4317031;33;34285;-65
2023/08/08 03:43:07;;;;;;;1.75;1.10;;;;;;;25.52;38.47;99744.75;4317456;33;33968;-65
2023/08/08 03:45:34;;;;;;;1.85;1.05;;;;;;;25.50;38.53;99747.72;4317158;33;33474;-65
2023/08/08 03:48:02;;;;;;;3.22;0.90;;;;;;;25.51;38.52;99752.13;4317126;33;33758;-65
2023/08/08 03:50:30;;;;;;;3.37;0.88;;;;;;;25.50;38.39;99747.72;4317264;33;34410;-65
2023/08/08 03:52:58;;;;;;;2.40;1.10;;;;;;;25.51;38.30;99748.53;4317050;33;34042;-65
2023/08/08 03:55:25;;;;;;;3.33;1.02;;;;;;;25.51;38.18;99745.81;4316984;33;34213;-64
2023/08/08 03:57:53;;;;;;;1.67;1.00;;;;;;;25.50;38.14;99753.19;4316126;33;34137;-65
2023/08/08 04:00:21;;;;;;;1.58;1.25;;;;;;;25.50;38.05;99753.19;4316991;33;34507;-64
2023/08/08 04:02:48;;;;;;;1.35;0.93;;;;;;;25.49;37.94;99750.69;4316897;33;34322;-65
2023/08/08 04:05:18;;;;;;;2.47;1.00;;;;;;;25.49;37.79;99767.91;4316897;33;33832;-65
2023/08/08 04:07:45;;;;;;;1.83;1.12;;;;;;;25.49;37.86;99765.19;4316869;33;34896;-65
2023/08/08 04:10:13;;;;;;;2.85;1.30;;;;;;;25.48;37.83;99766.25;4316653;33;34551;-65
2023/08/08 04:12:40;;;;;;;3.50;1.25;;;;;;;25.47;37.83;99774.72;4316936;33;33295;-65
2023/08/08 04:15:09;;;;;;;1.70;1.12;;;;;;;25.47;37.66;99771.97;4316756;33;33526;-65
2023/08/08 04:17:36;;;;;;;2.08;1.05;;;;;;;25.45;37.52;99778.50;4316723;33;33783;-66
2023/08/08 04:20:06;;;;;;;4.03;1.27;;;;;;;25.45;37.47;99785.84;4316427;33;34502;-65
2023/08/08 04:22:33;;;;;;;1.05;0.90;;;;;;;25.43;37.53;99783.38;4316491;33;33357;-65
2023/08/08 04:25:01;;;;;;;1.67;1.10;;;;;;;25.43;37.58;99782.53;4316643;33;33994;-65
2023/08/08 04:27:29;;;;;;;1.83;1.17;;;;;;;25.42;37.56;99786.34;4316622;33;34842;-64
2023/08/08 04:29:56;;;;;;;2.08;1.20;;;;;;;25.41;37.38;99787.41;4316770;33;33975;-64
2023/08/08 04:32:24;;;;;;;2.62;1.30;;;;;;;25.40;37.23;99794.78;4316327;33;34061;-64
2023/08/08 04:34:52;;;;;;;3.60;1.17;;;;;;;25.41;37.18;99792.88;4316509;33;34742;-65
2023/08/08 04:37:19;;;;;;;2.47;1.20;;;;;;;25.40;37.37;99789.31;4316572;33;34840;-65
2023/08/08 04:39:47;;;;;;;4.62;1.17;;;;;;;25.40;37.26;99785.75;4316201;33;34752;-65
2023/08/08 04:42:14;;;;;;;2.05;1.25;;;;;;;25.40;37.44;99786.56;4315085;33;33371;-65
2023/08/08 04:44:42;;;;;;;2.35;1.10;;;;;;;25.40;37.65;99794.78;4316454;33;34296;-65
2023/08/08 04:47:09;;;;;;;2.83;1.23;;;;;;;25.40;37.69;99792.03;4316173;33;33871;-65
2023/08/08 04:49:37;;;;;;;1.27;1.00;;;;;;;25.41;37.83;99798.31;4315008;33;33913;-65
2023/08/08 04:52:05;;;;;;;3.25;1.40;;;;;;;25.41;37.91;99804.66;4316554;33;32984;-64
2023/08/08 04:54:33;;;;;;;11.30;1.27;;;;;;;25.41;37.91;99803.78;4316119;33;33789;-65
2023/08/08 04:57:01;;;;;;;2.25;1.23;;;;;;;25.41;37.99;99796.44;4315846;33;34787;-65
2023/08/08 04:59:28;;;;;;;4.03;1.45;;;;;;;25.42;37.85;99803.56;4315956;33;34579;-65
2023/08/08 05:01:56;;;;;;;3.55;1.23;;;;;;;25.42;37.83;99806.31;4315945;33;34256;-67
2023/08/08 05:04:24;;;;;;;2.72;1.27;;;;;;;25.44;37.85;99809.63;4316029;33;34690;-71
2023/08/08 05:06:57;;;;;;;4.20;1.30;;;;;;;25.45;37.79;99804.97;4316181;33;33688;-71
2023/08/08 05:09:26;;;;;;;7.70;1.40;;;;;;;25.45;37.73;99813.16;4316809;33;33846;-71
2023/08/08 05:11:53;;;;;;;3.97;1.33;;;;;;;25.46;37.77;99812.13;4318186;33;34100;-71
2023/08/08 05:14:21;;;;;;;2.12;1.10;;;;;;;25.44;37.74;99815.06;4316906;33;33945;-70
2023/08/08 05:16:50;;;;;;;3.47;1.17;;;;;;;25.44;37.95;99817.81;4318180;33;33830;-71
2023/08/08 05:19:18;;;;;;;2.75;1.25;;;;;;;25.45;37.75;99813.16;4318471;33;33432;-70
2023/08/08 05:21:45;;;;;;;3.10;1.42;;;;;;;25.45;37.88;99821.38;4318220;33;34285;-71
2023/08/08 05:24:13;;;;;;;4.37;1.60;;;;;;;25.44;38.02;99819.72;4318160;33;33997;-71
2023/08/08 05:26:40;;;;;;;2.92;1.50;;;;;;;25.45;37.86;99824.09;4318143;33;34862;-70
2023/08/08 05:29:08;;;;;;;3.75;1.60;;;;;;;25.44;37.80;99814.25;4317856;33;34130;-71
2023/08/08 05:31:36;;;;;;;6.35;1.75;;;;;;;25.43;37.71;99828.97;4318119;33;34543;-71
2023/08/08 05:34:03;;;;;;;4.15;1.50;;;;;;;25.42;37.66;99827.34;4318322;33;34686;-70
2023/08/08 05:36:31;;;;;;;3.28;1.52;;;;;;;25.42;37.53;99814.50;4317880;33;33829;-71
2023/08/08 05:38:59;;;;;;;4.30;1.40;;;;;;;25.41;37.49;99823.78;4318053;33;34184;-71
2023/08/08 05:41:26;;;;;;;4.12;1.20;;;;;;;25.41;37.55;99829.22;4317582;33;33162;-71
2023/08/08 05:43:54;;;;;;;6.07;1.62;;;;;;;25.39;37.44;99825.06;4304141;33;32464;-71
2023/08/08 05:46:22;;;;;;;2.67;1.25;;;;;;;25.39;37.52;99827.78;4317487;33;33498;-71
2023/08/08 05:48:49;;;;;;;2.50;1.40;;;;;;;25.39;37.42;99830.53;4317330;33;33804;-71
2023/08/08 05:51:17;;;;;;;3.10;1.55;;;;;;;25.36;37.31;99831.81;4317681;33;34178;-71
2023/08/08 05:53:45;;;;;;;3.15;1.30;;;;;;;25.37;37.49;99835.41;4317797;33;33837;-71
2023/08/08 05:56:13;;;;;;;6.43;1.55;;;;;;;25.36;37.41;99839.19;4318097;33;34335;-71
2023/08/08 05:58:40;;;;;;;3.03;1.67;;;;;;;25.35;37.41;99841.09;4317960;33;34621;-71
2023/08/08 06:01:11;;;;;;;3.92;1.90;;;;;;;25.35;37.36;99838.38;4317944;33;33389;-71
2023/08/08 06:03:39;;;;;;;5.10;1.73;;;;;;;25.34;37.46;99835.88;4317908;33;34054;-71
2023/08/08 06:06:07;;;;;;;3.05;1.52;;;;;;;25.33;37.30;99826.84;4317666;33;33714;-71
2023/08/08 06:08:34;;;;;;;3.28;1.80;;;;;;;25.33;37.43;99826.03;4317934;33;34178;-71
2023/08/08 06:11:02;;;;;;;3.72;1.50;;;;;;;25.33;37.43;99834.22;4317786;33;34159;-71
2023/08/08 06:13:30;;;;;;;3.60;2.03;;;;;;;25.32;37.43;99832.53;4317623;33;33522;-71
2023/08/08 06:15:57;;;;;;;4.00;1.77;;;;;;;25.32;37.36;99841.59;4317852;33;34926;-72
2023/08/08 06:18:25;;;;;;;3.08;1.75;;;;;;;25.33;37.33;99839.69;4317688;33;33862;-71
2023/08/08 06:20:53;;;;;;;3.40;1.65;;;;;;;25.31;37.30;99839.06;4316934;33;33205;-71
2023/08/08 06:23:21;;;;;;;3.20;1.62;;;;;;;25.32;37.28;99847.06;4317765;33;33840;-71
2023/08/08 06:25:48;;;;;;;3.87;1.80;;;;;;;25.31;37.12;99850.00;4317759;33;33925;-71
2023/08/08 06:28:16;;;;;;;4.35;1.67;;;;;;;25.30;37.03;99857.38;4317589;33;33942;-72
2023/08/08 06:30:44;;;;;;;3.25;1.65;;;;;;;25.29;37.11;99852.97;4317680;33;33366;-70
2023/08/08 06:33:11;;;;;;;4.28;1.77;;;;;;;25.30;37.26;99856.53;4317475;33;33543;-72
2023/08/08 06:35:39;;;;;;;3.22;1.60;;;;;;;25.29;37.17;99854.88;4317382;33;33813;-71
2023/08/08 06:38:07;;;;;;;4.07;1.83;;;;;;;25.31;37.25;99858.19;4316387;33;33444;-72
2023/08/08 06:40:35;;;;;;;4.22;1.85;;;;;;;25.30;37.17;99856.53;4317493;33;34256;-73
2023/08/08 06:43:02;;;;;;;5.60;2.00;;;;;;;25.29;37.06;99855.72;4317386;33;33755;-71
2023/08/08 06:45:30;;;;;;;4.47;1.48;;;;;;;25.28;37.03;99853.22;4317667;33;34681;-71
2023/08/08 06:47:58;;;;;;;4.80;1.90;;;;;;;25.28;37.02;99855.97;4317547;33;33480;-71
2023/08/08 06:50:25;;;;;;;3.85;1.80;;;;;;;25.28;37.07;99851.31;4317347;33;33354;-71
2023/08/08 06:52:53;;;;;;;3.12;1.73;;;;;;;25.28;37.12;99853.22;4316310;33;33688;-71
2023/08/08 06:55:21;;;;;;;3.87;1.60;;;;;;;25.28;37.07;99853.22;4317579;33;33997;-70
2023/08/08 06:57:48;;;;;;;3.92;1.58;;;;;;;25.28;36.96;99858.69;4317483;33;33620;-70
2023/08/08 07:00:16;;;;;;;4.35;1.92;;;;;;;25.27;37.08;99862.47;4317469;33;33173;-71
2023/08/08 07:02:44;;;;;;;3.65;1.95;;;;;;;25.27;37.06;99859.72;4317474;33;33917;-70
2023/08/08 07:05:12;;;;;;;3.87;1.77;;;;;;;25.27;36.96;99860.56;4317462;33;34469;-72
2023/08/08 07:07:39;;;;;;;7.47;1.73;;;;;;;25.26;36.99;99858.91;4317545;33;33769;-71
2023/08/08 07:10:07;;;;;;;6.25;1.80;;;;;;;25.26;37.01;99871.72;4317406;33;33649;-72
2023/08/08 07:12:35;;;;;;;7.62;2.00;;;;;;;25.27;37.02;99865.19;4317469;33;34477;-71
2023/08/08 07:15:03;;;;;;;4.53;1.55;;;;;;;25.28;37.01;99864.16;4317320;33;34769;-71
2023/08/08 07:17:31;;;;;;;5.12;1.60;;;;;;;25.27;36.94;99867.94;4317288;33;34604;-71
2023/08/08 07:19:58;;;;;;;4.15;1.80;;;;;;;25.28;36.90;99881.38;4317538;33;33031;-71
2023/08/08 07:22:26;;;;;;;3.67;1.40;;;;;;;25.27;36.88;99876.94;4317292;33;34333;-71
2023/08/08 07:24:54;;;;;;;4.12;1.90;;;;;;;25.27;36.85;99878.84;4317257;33;33886;-72
2023/08/08 07:27:21;;;;;;;8.23;1.92;;;;;;;25.26;37.01;99879.91;4317295;33;33998;-72
2023/08/08 07:29:49;;;;;;;3.72;1.62;;;;;;;25.26;36.93;99882.66;4317316;33;33516;-71
2023/08/08 07:32:17;;;;;;;5.82;1.95;;;;;;;25.25;37.12;99884.56;4316016;33;33730;-71
2023/08/08 07:34:44;;;;;;;3.37;1.48;;;;;;;25.26;36.96;99885.38;4316988;33;33922;-71
2023/08/08 07:37:13;;;;;;;5.57;1.70;;;;;;;25.27;37.03;99881.59;4317534;33;33280;-71
2023/08/08 07:39:41;;;;;;;5.43;2.03;;;;;;;25.28;37.28;99896.94;4317064;33;33387;-71
2023/08/08 07:42:09;;;;;;;3.75;1.60;;;;;;;25.29;37.14;99896.69;4315159;33;34685;-71
2023/08/08 07:44:38;;;;;;;4.87;1.75;;;;;;;25.29;37.13;99893.13;4317070;33;33896;-70
2023/08/08 07:47:07;;;;;;;5.37;1.80;;;;;;;25.31;37.11;99896.44;4316704;33;33849;-71
2023/08/08 07:49:36;;;;;;;2.80;1.73;;;;;;;25.31;37.10;99901.87;4315424;33;32527;-71
2023/08/08 07:52:04;;;;;;;4.37;1.92;;;;;;;25.32;37.20;99903.53;4316512;33;34629;-71
2023/08/08 07:54:32;;;;;;;3.80;1.80;;;;;;;25.32;37.20;99896.22;4316302;33;34073;-71
2023/08/08 07:57:00;;;;;;;3.85;1.80;;;;;;;25.34;37.25;99901.44;4316774;33;34844;-71
2023/08/08 07:59:27;;;;;;;6.28;2.10;;;;;;;25.33;37.41;99895.13;4316413;33;33497;-70
2023/08/08 08:01:56;;;;;;;4.00;1.90;;;;;;;25.34;37.23;99898.69;4316425;33;33726;-71
2023/08/08 08:04:25;;;;;;;4.10;1.50;;;;;;;25.35;37.18;99892.16;4316433;33;34766;-71
2023/08/08 08:06:52;;;;;;;8.90;1.80;;;;;;;25.36;37.18;99891.91;4316518;33;34596;-72
2023/08/08 08:09:20;;;;;;;5.85;1.83;;;;;;;25.37;37.18;99895.50;4314842;33;34031;-71
2023/08/08 08:11:48;;;;;;;3.60;1.60;;;;;;;25.37;37.20;99892.78;4318739;33;35041;-72
2023/08/08 08:14:15;;;;;;;6.97;2.17;;;;;;;25.37;37.16;99901.78;4313905;33;34568;-72
2023/08/08 08:16:43;;;;;;;6.07;1.95;;;;;;;25.38;37.07;99900.72;4312720;33;33841;-72
2023/08/08 08:19:10;;;;;;;5.40;1.98;;;;;;;25.40;37.11;99901.31;4316391;33;33415;-73
2023/08/08 08:21:38;;;;;;;5.87;1.92;;;;;;;25.42;37.02;99901.09;4316213;33;34771;-72
2023/08/08 08:24:06;;;;;;;6.40;1.90;;;;;;;25.41;37.07;99903.00;4314833;33;34778;-71
2023/08/08 08:26:34;;;;;;;4.47;1.87;;;;;;;25.42;37.09;99909.28;4305552;33;34730;-71
2023/08/08 08:29:05;;;;;;;6.72;2.12;;;;;;;25.42;36.73;99906.53;4327140;33;34651;-71
2023/08/08 08:31:32;;;;;;;5.25;2.22;;;;;;;25.41;36.66;99913.06;4317470;33;33696;-71
2023/08/08 08:34:00;;;;;;;6.62;2.00;;;;;;;25.42;36.73;99920.22;4313251;33;34047;-71
2023/08/08 08:36:28;;;;;;;3.45;1.60;;;;;;;25.41;36.80;99913.06;4307170;33;33482;-71
2023/08/08 08:38:55;;;;;;;4.15;1.50;;;;;;;25.41;36.72;99919.38;4316170;33;33459;-71
2023/08/08 08:41:27;;;;;;;3.92;2.00;;;;;;;25.41;36.52;99919.38;4306834;33;34064;-71
2023/08/08 08:43:55;;;;;;;4.50;2.17;;;;;;;25.40;36.36;99917.69;4300700;33;33702;-71
2023/08/08 08:46:23;;;;;;;4.22;1.85;;;;;;;25.41;36.38;99913.06;4303182;33;34847;-71
2023/08/08 08:48:51;;;;;;;4.65;1.80;;;;;;;25.40;36.35;99912.22;4289935;33;33483;-71
2023/08/08 08:51:18;;;;;;;3.62;1.62;;;;;;;25.40;36.47;99914.97;4316025;33;33585;-71
2023/08/08 08:53:46;;;;;;;5.75;1.75;;;;;;;25.39;36.62;99909.75;4317519;33;33946;-71
2023/08/08 08:56:14;;;;;;;5.35;1.83;;;;;;;25.40;36.47;99906.75;4317878;33;34171;-72
2023/08/08 08:58:42;;;;;;;3.17;1.58;;;;;;;25.41;36.28;99908.44;4294280;33;33819;-71
2023/08/08 09:01:10;;;;;;;4.78;1.73;;;;;;;25.42;36.17;99912.00;4317984;33;34575;-70
2023/08/08 09:03:38;;;;;;;4.37;1.92;;;;;;;25.43;36.30;99905.47;4316716;33;33703;-72
2023/08/08 09:06:06;;;;;;;5.30;2.10;;;;;;;25.45;36.24;99900.59;4316151;33;34182;-72
2023/08/08 09:08:34;;;;;;;6.87;2.00;;;;;;;25.45;36.26;99904.16;4317962;33;33336;-71
2023/08/08 09:11:02;;;;;;;7.80;2.08;;;;;;;25.45;36.13;99914.25;4318071;33;34542;-71
2023/08/08 09:13:39;;;;;;;3.50;1.70;;;;;;;25.43;36.06;99903.56;4313936;33;34033;-71
2023/08/08 09:16:08;;;;;;;3.83;1.75;;;;;;;25.46;36.05;99905.00;4304822;33;33979;-72
2023/08/08 09:18:39;;;;;;;3.40;1.83;;;;;;;25.43;36.09;99906.28;4331465;33;34182;-73
2023/08/08 09:21:06;;;;;;;4.20;2.08;;;;;;;25.43;36.25;99905.47;4332511;33;33984;-73
2023/08/08 09:23:34;;;;;;;6.00;1.90;;;;;;;25.43;36.00;99916.41;4328290;33;34010;-73
2023/08/08 09:26:02;;;;;;;4.90;1.98;;;;;;;25.42;36.05;99907.38;4316767;33;33415;-72
2023/08/08 09:28:29;;;;;;;3.25;1.70;;;;;;;25.42;36.15;99914.75;4330479;33;33213;-74
2023/08/08 09:30:57;;;;;;;6.05;1.90;;;;;;;25.41;36.11;99916.66;4319050;33;34073;-71
2023/08/08 09:33:28;;;;;;;2.53;1.50;;;;;;;25.40;36.01;99912.22;4303737;33;33716;-72
2023/08/08 09:35:56;;;;;;;3.72;1.60;;;;;;;25.40;35.88;99917.69;4317913;33;34119;-73
2023/08/08 09:38:24;;;;;;;2.80;1.62;;;;;;;25.40;35.96;99916.84;4318068;33;33936;-72
2023/08/08 09:40:52;;;;;;;4.75;1.85;;;;;;;25.40;35.76;99919.59;4325186;33;34891;-73
2023/08/08 09:43:20;;;;;;;3.37;1.58;;;;;;;25.37;35.78;99918.19;4316789;33;33841;-74
2023/08/08 09:45:48;;;;;;;3.08;1.42;;;;;;;25.38;35.92;99914.38;4318004;33;33907;-73
2023/08/08 09:48:16;;;;;;;3.05;1.83;;;;;;;25.38;35.92;99905.34;4317803;33;34073;-71
2023/08/08 09:50:43;;;;;;;3.33;1.80;;;;;;;25.38;35.86;99910.81;4316984;33;33501;-72
2023/08/08 09:53:11;;;;;;;3.47;1.62;;;;;;;25.38;35.92;99910.81;4316476;33;34053;-74
2023/08/08 09:55:39;;;;;;;3.90;1.83;;;;;;;25.37;36.20;99911.91;4303804;33;33786;-73
2023/08/08 09:58:08;;;;;;;7.28;2.03;;;;;;;25.37;36.15;99909.16;4316508;33;33328;-72
2023/08/08 10:00:36;;;;;;;3.05;1.75;;;;;;;25.37;36.01;99911.91;4316459;33;34757;-71
2023/08/08 10:03:04;;;;;;;6.75;2.15;;;;;;;25.37;36.18;99914.63;4317759;33;34889;-71
2023/08/08 10:05:32;;;;;;;8.40;1.98;;;;;;;25.38;36.04;99910.81;4316587;33;33834;-73
2023/08/08 10:07:59;;;;;;;4.80;1.98;;;;;;;25.40;35.96;99916.84;4317909;33;33394;-73
2023/08/08 10:10:27;;;;;;;5.25;1.90;;;;;;;25.41;36.01;99913.06;4317614;33;33762;-71
2023/08/08 10:12:54;;;;;;;6.32;1.92;;;;;;;25.41;35.95;99913.06;4316266;33;34705;-73
2023/08/08 10:15:26;;;;;;;7.03;2.22;;;;;;;25.43;36.10;99902.75;4316137;33;33721;-71
2023/08/08 10:17:55;;;;;;;4.00;1.65;;;;;;;25.43;35.96;99908.19;4316487;33;34065;-74
2023/08/08 10:20:26;;;;;;;4.68;1.92;;;;;;;25.42;35.83;99912.00;4317770;33;33503;-73
2023/08/08 10:22:54;;;;;;;5.07;2.03;;;;;;;25.42;35.72;99901.09;4316140;33;34912;-74
2023/08/08 10:25:27;;;;;;;5.57;2.00;;;;;;;25.42;35.69;99907.38;4315975;33;34028;-71
2023/08/08 10:28:03;;;;;;;4.73;2.10;;;;;;;25.41;35.68;99902.13;4316494;33;33658;-74
2023/08/08 10:30:50;;;;;;;7.05;1.80;;;;;;;25.43;35.77;99898.09;4316945;33;33737;-73
2023/08/08 10:33:19;;;;;;;5.22;2.20;;;;;;;25.43;35.75;99900.00;4317422;33;34205;-73
2023/08/08 10:35:56;;;;;;;7.32;2.28;;;;;;;25.40;36.17;99898.56;4317605;33;34545;-73
2023/08/08 10:38:37;;;;;;;5.95;2.33;;;;;;;25.42;35.86;99895.63;4317622;33;33787;-71
2023/08/08 10:41:08;;;;;;;6.60;1.98;;;;;;;25.40;36.11;99901.31;4317576;33;33929;-74
2023/08/08 10:43:35;;;;;;;4.82;1.70;;;;;;;25.40;36.03;99895.00;4316239;33;34126;-74
2023/08/08 10:46:03;;;;;;;3.75;1.65;;;;;;;25.41;35.87;99896.66;4317495;33;33798;-71
2023/08/08 10:48:59;;;;;;;4.00;1.83;;;;;;;25.40;35.98;99892.28;4317564;33;33353;-71
2023/08/08 10:51:42;;;;;;;5.80;2.10;;;;;;;25.43;35.97;99886.34;4310437;33;34260;-70
2023/08/08 10:54:13;;;;;;;4.93;1.70;;;;;;;25.42;35.83;99895.63;4304525;33;33567;-71
2023/08/08 10:56:51;;;;;;;5.97;2.10;;;;;;;25.40;36.02;99893.09;4317160;33;34105;-71
2023/08/08 10:59:22;;;;;;;6.82;2.40;;;;;;;25.41;35.94;99886.59;4300233;33;34186;-69
2023/08/08 11:01:52;;;;;;;5.35;2.05;;;;;;;25.41;35.88;99885.75;4302602;33;33456;-69
2023/08/08 11:04:21;;;;;;;5.50;2.17;;;;;;;25.42;35.92;99884.69;4302853;33;33934;-69
2023/08/08 11:06:49;;;;;;;4.07;1.90;;;;;;;25.42;35.97;99888.25;4301553;33;33801;-71
2023/08/08 11:09:17;;;;;;;3.60;1.80;;;;;;;25.43;35.94;99887.19;4302962;33;33334;-68
2023/08/08 11:11:46;;;;;;;5.78;2.20;;;;;;;25.42;36.03;99881.97;4310993;33;33794;-71
2023/08/08 11:14:17;;;;;;;3.22;1.70;;;;;;;25.43;36.02;99887.19;4316875;33;33650;-69
2023/08/08 11:16:46;;;;;;;3.78;1.60;;;;;;;25.42;36.02;99880.06;4317032;33;33876;-71
2023/08/08 11:19:14;;;;;;;3.72;2.17;;;;;;;25.42;36.08;99873.75;4317001;33;33054;-71
2023/08/08 11:21:44;;;;;;;4.87;2.05;;;;;;;25.43;36.00;99878.97;4317455;33;34086;-71
2023/08/08 11:24:12;;;;;;;4.18;2.08;;;;;;;25.44;36.04;99880.63;4316062;33;34006;-69
2023/08/08 12:47:49;;;;;;;5.20;1.95;;;;;;;25.54;34.70;99817.19;4957704;27;20331;-67
2023/08/08 12:50:17;;;;;;;3.72;1.70;;;;;;;25.54;34.51;99809.00;4304623;33;33941;-69
2023/08/08 12:52:44;;;;;;;5.43;1.83;;;;;;;25.56;34.16;99812.34;4304062;33;33881;-67
2023/08/08 12:55:12;;;;;;;4.12;1.85;;;;;;;25.57;34.07;99818.63;4283846;33;32918;-66
2023/08/08 12:57:40;;;;;;;3.37;1.73;;;;;;;25.59;34.03;99813.75;4317979;33;34101;-68
2023/08/08 13:00:08;;;;;;;4.80;1.90;;;;;;;25.61;33.92;99815.19;4305436;33;33435;-68